Time;durP1;ratioP1;P1;durP2;ratioP2;P2;SDS_P1;SDS_P2;PMS_P1;PMS_P2;Temp;Humidity;BMP_temperature;BMP_pressure;BME280_temperature;BME280_humidity;BME280_pressure;Samples;Min_cycle;Max_cycle;Signal;HPM_P1;HPM_P2
2023/10/20 00:00:51;;;;;;;11.77;6.93;;;;;;;11.44;77.47;93528.34;5063718;28;20067;-89
2023/10/20 00:03:17;;;;;;;11.68;7.75;;;;;;;11.41;77.83;93528.97;5063813;28;20356;-89
2023/10/20 00:05:42;;;;;;;12.93;7.65;;;;;;;11.37;77.94;93528.06;5063823;28;20025;-88
2023/10/20 00:08:08;;;;;;;14.18;7.40;;;;;;;11.34;78.22;93518.06;5064480;28;20050;-89
2023/10/20 00:10:36;;;;;;;10.57;7.38;;;;;;;11.32;78.09;93514.94;5063646;28;20047;-88
2023/10/20 00:13:06;;;;;;;14.20;7.40;;;;;;;11.36;78.25;93525.75;5063633;28;20020;-89
2023/10/20 00:15:33;;;;;;;12.48;7.65;;;;;;;11.39;78.13;93509.84;5063220;28;20250;-88
2023/10/20 00:18:46;;;;;;;15.25;7.90;;;;;;;11.42;77.91;93509.22;5063250;28;20037;-88
2023/10/20 00:21:11;;;;;;;13.70;7.45;;;;;;;11.39;78.03;93507.19;5064520;28;20036;-89
2023/10/20 00:23:37;;;;;;;15.13;7.15;;;;;;;11.40;78.13;93505.31;5064218;28;20024;-88
2023/10/20 00:26:02;;;;;;;12.43;6.22;;;;;;;11.39;78.42;93507.19;5063846;28;20027;-88
2023/10/20 00:28:28;;;;;;;9.30;6.05;;;;;;;11.38;78.71;93497.63;5063924;28;20024;-88
2023/10/20 00:30:54;;;;;;;11.80;6.72;;;;;;;11.37;78.84;93496.06;5064536;28;20052;-89
2023/10/20 00:33:20;;;;;;;11.98;6.80;;;;;;;11.39;78.85;93499.19;5064386;28;20381;-88
2023/10/20 00:35:45;;;;;;;11.80;6.00;;;;;;;11.37;78.84;93485.38;5063867;28;20028;-87
2023/10/20 00:38:11;;;;;;;10.50;6.68;;;;;;;11.36;78.81;93494.50;5063267;28;20024;-87
2023/10/20 00:40:48;;;;;;;11.38;6.47;;;;;;;11.34;78.92;93486.06;5063472;28;20052;-87
2023/10/20 00:43:13;;;;;;;11.60;6.60;;;;;;;11.30;79.16;93490.47;5063543;28;20035;-87
2023/10/20 00:45:40;;;;;;;11.98;7.30;;;;;;;11.29;79.31;93483.56;5063280;28;20020;-87
2023/10/20 00:48:11;;;;;;;11.95;6.35;;;;;;;11.29;79.16;93478.22;5063440;28;20025;-86
2023/10/20 00:50:36;;;;;;;10.20;6.22;;;;;;;11.29;79.49;93472.91;5063469;28;20028;-87
2023/10/20 00:53:03;;;;;;;8.68;5.57;;;;;;;11.29;79.40;93470.22;5063363;28;20021;-87
2023/10/20 00:55:30;;;;;;;12.02;6.22;;;;;;;11.27;79.37;93477.00;5063172;28;20091;-87
2023/10/20 00:57:57;;;;;;;13.35;5.90;;;;;;;11.24;79.60;93470.44;5063532;28;20033;-87
2023/10/20 01:00:22;;;;;;;9.43;5.55;;;;;;;11.25;79.74;93482.66;5064220;28;20323;-87
2023/10/20 01:02:47;;;;;;;10.23;5.85;;;;;;;11.20;79.95;93482.88;5061765;28;20027;-89
2023/10/20 01:05:22;;;;;;;11.25;6.28;;;;;;;11.23;80.05;93490.19;5063101;28;20059;-87
2023/10/20 01:07:48;;;;;;;8.80;5.30;;;;;;;11.20;80.12;93490.88;5063231;28;20055;-87
2023/10/20 01:10:14;;;;;;;9.20;5.45;;;;;;;11.22;80.10;93488.66;5061990;28;20032;-87
2023/10/20 01:12:39;;;;;;;10.75;5.20;;;;;;;11.22;80.29;93488.66;5061517;28;20064;-87
2023/10/20 01:15:06;;;;;;;7.97;4.68;;;;;;;11.24;80.11;93481.09;5062727;28;20337;-87
2023/10/20 01:17:32;;;;;;;7.95;5.32;;;;;;;11.23;79.87;93479.53;5062705;28;20045;-87
2023/10/20 01:20:03;;;;;;;11.27;5.50;;;;;;;11.23;80.06;93474.19;5062769;28;20024;-87
2023/10/20 01:22:28;;;;;;;8.00;5.45;;;;;;;11.23;80.18;93472.34;5062911;28;20096;-87
2023/10/20 01:24:54;;;;;;;17.48;6.05;;;;;;;11.24;79.80;93475.78;5062726;28;20048;-88
2023/10/20 01:27:20;;;;;;;10.40;6.15;;;;;;;11.21;80.00;93481.75;5062942;28;20096;-87
2023/10/20 01:29:45;;;;;;;9.75;5.72;;;;;;;11.20;79.84;93480.97;5062770;28;20021;-88
2023/10/20 01:32:11;;;;;;;19.13;5.60;;;;;;;11.19;79.97;93465.28;5061597;28;20036;-88
2023/10/20 01:34:36;;;;;;;10.00;5.22;;;;;;;11.17;80.02;93476.31;5061632;28;20070;-88
2023/10/20 01:37:02;;;;;;;11.13;6.13;;;;;;;11.11;79.87;93455.47;5063024;28;20024;-89
2023/10/20 01:39:29;;;;;;;9.95;5.68;;;;;;;11.08;80.04;93461.47;5062074;28;20056;-90
2023/10/20 01:41:55;;;;;;;8.07;5.63;;;;;;;11.03;80.17;93444.56;5062426;28;20029;-90
2023/10/20 01:44:23;;;;;;;8.68;5.97;;;;;;;10.99;80.42;93443.63;5063322;28;20045;-89
2023/10/20 01:46:49;;;;;;;12.35;7.50;;;;;;;10.96;80.47;93446.94;5062034;28;20040;-91
2023/10/20 01:49:16;;;;;;;8.82;5.80;;;;;;;10.93;80.71;93436.94;5062214;28;20224;-89
2023/10/20 01:51:41;;;;;;;12.70;6.78;;;;;;;10.91;80.73;93435.69;5063133;28;20035;-86
2023/10/20 01:54:06;;;;;;;12.32;7.22;;;;;;;10.81;81.53;93431.53;5062748;28;20095;-87
2023/10/20 01:56:32;;;;;;;11.63;7.38;;;;;;;10.76;81.77;93435.16;5062367;28;20017;-87
2023/10/20 01:58:58;;;;;;;15.85;7.30;;;;;;;10.76;82.07;93450.38;5061544;28;20338;-88
2023/10/20 02:01:23;;;;;;;10.75;6.93;;;;;;;10.77;82.18;93451.94;5062735;28;20024;-87
2023/10/20 02:03:49;;;;;;;11.45;7.60;;;;;;;10.74;82.04;93453.38;5062706;28;20368;-87
2023/10/20 02:06:18;;;;;;;13.65;7.47;;;;;;;10.77;82.01;93462.63;5061294;28;20246;-87
2023/10/20 02:08:43;;;;;;;12.85;7.20;;;;;;;10.81;82.30;93463.53;5061389;28;20029;-87
2023/10/20 02:11:09;;;;;;;11.43;7.07;;;;;;;10.80;82.44;93459.28;5062390;28;20212;-87
2023/10/20 02:13:35;;;;;;;15.40;6.53;;;;;;;10.79;82.51;93463.06;5062416;28;20311;-87
2023/10/20 02:16:01;;;;;;;12.45;7.10;;;;;;;10.81;82.40;93455.53;5062241;28;20036;-87
2023/10/20 02:18:26;;;;;;;8.10;5.55;;;;;;;10.80;82.16;93451.28;5062074;28;20049;-87
2023/10/20 02:20:59;;;;;;;10.65;5.85;;;;;;;10.81;82.30;93450.19;5062443;28;20051;-88
2023/10/20 02:23:25;;;;;;;15.88;6.47;;;;;;;10.84;82.04;93444.22;5060989;28;20029;-87
2023/10/20 02:25:58;;;;;;;9.07;4.88;;;;;;;10.88;81.94;93436.34;5062414;28;20116;-87
2023/10/20 02:28:23;;;;;;;11.35;5.13;;;;;;;10.88;81.93;93431.78;5064227;28;20036;-87
2023/10/20 02:30:48;;;;;;;11.02;5.90;;;;;;;10.86;82.13;93447.34;5065984;28;20025;-87
2023/10/20 02:33:14;;;;;;;10.23;5.88;;;;;;;10.84;81.92;93452.22;5066138;28;20098;-88
2023/10/20 02:35:40;;;;;;;7.88;5.28;;;;;;;10.85;81.94;93456.44;5066120;28;20040;-87
2023/10/20 02:38:05;;;;;;;7.65;5.38;;;;;;;10.86;81.77;93460.66;5065887;28;20345;-88
2023/10/20 02:40:31;;;;;;;9.65;4.82;;;;;;;10.88;81.78;93469.13;5064611;28;20048;-87
2023/10/20 02:42:56;;;;;;;11.38;6.03;;;;;;;10.89;81.48;93461.91;5065807;28;20088;-87
2023/10/20 02:45:21;;;;;;;10.38;5.88;;;;;;;10.88;81.32;93469.13;5064665;28;20063;-87
2023/10/20 02:47:47;;;;;;;16.88;6.45;;;;;;;10.83;81.37;93456.00;5065765;28;20037;-87
2023/10/20 02:50:12;;;;;;;10.25;6.20;;;;;;;10.86;81.24;93459.88;5065579;28;20655;-86
2023/10/20 02:52:38;;;;;;;10.48;6.63;;;;;;;10.83;81.24;93440.00;5064567;28;20020;-88
2023/10/20 02:55:04;;;;;;;13.38;6.43;;;;;;;10.86;81.04;93457.22;5064362;28;20047;-88
2023/10/20 02:57:29;;;;;;;11.75;6.55;;;;;;;10.81;81.31;93453.66;5064547;28;20215;-88
2023/10/20 02:59:55;;;;;;;10.48;6.22;;;;;;;10.82;81.04;93444.53;5065652;28;20020;-88
2023/10/20 03:02:20;;;;;;;10.77;6.28;;;;;;;10.78;81.18;93442.84;5064795;28;20052;-88
2023/10/20 03:04:46;;;;;;;13.32;6.88;;;;;;;10.79;81.17;93449.75;5065776;28;20042;-89
2023/10/20 03:07:12;;;;;;;9.48;6.30;;;;;;;10.77;81.27;93452.72;5064631;28;20021;-89
2023/10/20 03:09:38;;;;;;;10.38;6.18;;;;;;;10.77;81.25;93443.97;5064521;28;20323;-89
2023/10/20 03:12:04;;;;;;;10.60;6.28;;;;;;;10.71;81.45;93450.59;5065991;28;20031;-89
2023/10/20 03:14:30;;;;;;;13.27;7.32;;;;;;;10.64;81.50;93427.88;5064538;28;20035;-90
2023/10/20 03:16:56;;;;;;;11.63;6.50;;;;;;;10.70;81.93;93435.69;5065321;28;20266;-89
2023/10/20 03:19:22;;;;;;;10.90;7.30;;;;;;;10.68;81.64;93436.00;5065175;28;20051;-87
2023/10/20 03:21:47;;;;;;;10.15;5.93;;;;;;;10.66;81.98;93434.75;5065433;28;20028;-88
2023/10/20 03:24:13;;;;;;;14.07;7.28;;;;;;;10.69;81.97;93437.56;5065225;28;20029;-88
2023/10/20 03:26:38;;;;;;;17.90;7.38;;;;;;;10.69;81.83;93436.81;5065198;28;20029;-88
2023/10/20 03:29:04;;;;;;;11.45;6.95;;;;;;;10.66;82.01;93434.75;5063675;28;20021;-88
2023/10/20 03:31:31;;;;;;;11.73;6.35;;;;;;;10.67;82.20;93436.34;5065061;28;20028;-89
2023/10/20 03:33:57;;;;;;;9.27;6.07;;;;;;;10.64;81.99;93427.88;5065042;28;20044;-87
2023/10/20 03:36:22;;;;;;;13.77;6.50;;;;;;;10.66;82.25;93429.44;5063766;28;20028;-88
2023/10/20 03:38:49;;;;;;;11.13;5.32;;;;;;;10.67;82.05;93429.13;5064932;28;20333;-88
2023/10/20 03:41:16;;;;;;;10.52;6.40;;;;;;;10.66;82.28;93418.78;5064766;28;20066;-88
2023/10/20 03:43:41;;;;;;;19.98;6.15;;;;;;;10.68;82.33;93424.56;5064782;28;20048;-88
2023/10/20 03:46:07;;;;;;;12.35;5.80;;;;;;;10.64;82.46;93425.22;5064476;28;20025;-87
2023/10/20 03:48:34;;;;;;;8.90;5.90;;;;;;;10.68;82.50;93432.56;5063349;28;20034;-88
2023/10/20 03:51:00;;;;;;;9.10;5.10;;;;;;;10.64;82.58;93424.41;5064729;28;20025;-88
2023/10/20 03:53:36;;;;;;;12.95;6.18;;;;;;;10.64;82.65;93409.22;5064645;28;20044;-86
2023/10/20 03:56:06;;;;;;;15.00;6.63;;;;;;;10.67;82.35;93418.47;5063307;28;20024;-86
2023/10/20 03:58:33;;;;;;;13.02;6.30;;;;;;;10.62;82.58;93398.13;5064443;28;20040;-85
2023/10/20 04:01:02;;;;;;;12.73;6.03;;;;;;;10.62;82.66;93391.97;5064374;28;20052;-87
2023/10/20 04:03:31;;;;;;;10.38;6.15;;;;;;;10.62;82.67;93397.31;5064831;28;20032;-91
2023/10/20 04:05:56;;;;;;;15.10;7.22;;;;;;;10.63;82.80;93402.31;5065261;28;20037;-92
2023/10/20 04:08:23;;;;;;;15.50;5.93;;;;;;;10.63;82.83;93404.22;5065264;28;20024;-91
2023/10/20 04:10:48;;;;;;;11.43;6.82;;;;;;;10.57;82.89;93416.94;5063908;28;20108;-88
2023/10/20 04:13:14;;;;;;;19.42;7.38;;;;;;;10.51;82.35;93410.25;5064478;28;20124;-87
2023/10/20 04:15:42;;;;;;;13.73;6.10;;;;;;;10.44;82.45;93407.28;5064470;28;20054;-90
2023/10/20 04:18:08;;;;;;;12.05;6.43;;;;;;;10.40;82.69;93396.53;5063941;28;20049;-90
2023/10/20 04:20:41;;;;;;;10.30;5.88;;;;;;;10.38;82.87;93404.06;5064587;28;20271;-91
2023/10/20 04:23:07;;;;;;;10.45;6.60;;;;;;;10.29;82.98;93411.28;5065790;28;20063;-90
2023/10/20 04:25:54;;;;;;;20.48;6.28;;;;;;;10.27;83.93;93413.47;5064658;28;20021;-90
2023/10/20 04:28:38;;;;;;;17.95;6.78;;;;;;;10.31;83.77;93424.31;5064029;28;20032;-91
2023/10/20 04:52:05;;;;;;;12.93;7.32;;;;;;;9.88;84.71;93409.28;5062634;28;20025;-86
2023/10/20 04:54:51;;;;;;;13.70;7.75;;;;;;;9.92;85.00;93402.22;5063360;28;20210;-87
2023/10/20 05:07:51;;;;;;;20.35;8.55;;;;;;;9.95;85.09;93438.84;5064211;28;20041;-88
2023/10/20 05:10:20;;;;;;;21.42;8.05;;;;;;;9.95;85.54;93428.97;5064256;28;20027;-91
2023/10/20 05:12:49;;;;;;;21.10;7.10;;;;;;;10.05;86.20;93427.81;5064170;28;20036;-92
2023/10/20 05:15:16;;;;;;;16.23;7.32;;;;;;;10.06;86.31;93420.66;5063832;28;20069;-92
2023/10/20 05:17:42;;;;;;;23.00;7.30;;;;;;;10.16;86.79;93420.28;5063849;28;20032;-92
2023/10/20 05:20:12;;;;;;;24.27;7.47;;;;;;;10.23;86.73;93423.97;5063685;28;20250;-89
2023/10/20 05:22:41;;;;;;;14.55;7.43;;;;;;;10.30;86.46;93428.84;5062340;28;20017;-89
2023/10/20 05:25:08;;;;;;;17.67;7.35;;;;;;;10.40;86.02;93425.03;5064028;28;20043;-89
2023/10/20 05:27:36;;;;;;;19.40;6.20;;;;;;;10.40;85.76;93428.50;5063347;28;20029;-89
2023/10/20 05:30:03;;;;;;;10.10;6.78;;;;;;;10.44;86.09;93444.59;5063241;28;20021;-90
2023/10/20 05:32:31;;;;;;;11.18;6.50;;;;;;;10.48;86.68;93450.06;5063598;28;20032;-88
2023/10/20 05:34:58;;;;;;;24.48;8.35;;;;;;;10.51;86.58;93457.44;5063447;28;20024;-88
2023/10/20 05:37:24;;;;;;;16.17;8.40;;;;;;;10.57;86.24;93472.91;5063329;28;20025;-89
2023/10/20 05:39:49;;;;;;;16.10;8.27;;;;;;;10.65;85.69;93468.63;5062197;28;20031;-89
2023/10/20 05:42:16;;;;;;;30.10;11.40;;;;;;;10.68;85.13;93470.66;5063622;28;20099;-90
2023/10/20 05:44:58;;;;;;;28.55;10.15;;;;;;;10.73;84.67;93472.38;5062403;28;20099;-89
2023/10/20 05:47:27;;;;;;;37.97;12.32;;;;;;;10.79;84.36;93466.50;5063186;28;20025;-88
2023/10/20 05:49:58;;;;;;;31.00;11.48;;;;;;;10.87;84.24;93464.09;5063481;28;20025;-90
2023/10/20 05:52:24;;;;;;;23.23;11.38;;;;;;;10.97;83.73;93480.53;5061919;28;20075;-87
2023/10/20 05:54:50;;;;;;;23.15;11.13;;;;;;;11.07;83.15;93465.22;5062609;28;20032;-86
2023/10/20 05:57:16;;;;;;;20.77;11.18;;;;;;;11.09;82.60;93465.69;5061333;28;20051;-85
2023/10/20 05:59:42;;;;;;;22.52;11.73;;;;;;;11.15;82.92;93459.03;5062970;28;20035;-89
2023/10/20 06:02:10;;;;;;;29.92;11.43;;;;;;;11.26;83.19;93457.56;5061383;28;20036;-90
2023/10/20 06:04:36;;;;;;;28.92;11.43;;;;;;;11.34;83.92;93463.94;5065253;28;20021;-85
2023/10/20 06:07:01;;;;;;;26.65;10.60;;;;;;;11.43;84.03;93457.38;5066413;28;20036;-82
2023/10/20 06:09:27;;;;;;;25.73;9.38;;;;;;;11.57;83.34;93464.34;5066306;28;20319;-82
2023/10/20 06:11:56;;;;;;;23.92;9.75;;;;;;;11.69;82.83;93466.28;5066214;28;20048;-81
2023/10/20 06:14:25;;;;;;;37.22;12.07;;;;;;;11.83;82.39;93461.44;5066370;28;20370;-85
2023/10/20 06:16:51;;;;;;;16.80;9.20;;;;;;;11.97;81.19;93469.94;5066229;28;20066;-79
2023/10/20 06:19:17;;;;;;;18.17;9.13;;;;;;;12.10;80.92;93457.38;5064688;28;20178;-78
2023/10/20 06:21:42;;;;;;;18.73;9.68;;;;;;;12.25;80.44;93480.00;5065929;28;20025;-78
2023/10/20 06:24:08;;;;;;;19.25;9.38;;;;;;;12.39;80.10;93479.69;5065777;28;20104;-78
2023/10/20 06:26:34;;;;;;;24.50;10.43;;;;;;;12.49;80.08;93481.91;5065816;28;20036;-78
2023/10/20 06:29:00;;;;;;;20.83;10.35;;;;;;;12.64;78.89;93478.59;5065821;28;20207;-78
2023/10/20 06:36:51;;;;;;;37.80;13.00;;;;;;;13.22;77.24;93462.31;5065448;28;20071;-79
2023/10/20 06:39:18;;;;;;;24.55;11.95;;;;;;;13.37;76.17;93455.53;5065795;28;20050;-80
2023/10/20 06:41:44;;;;;;;35.78;12.02;;;;;;;13.53;75.84;93458.22;5066263;28;20103;-79
2023/10/20 06:44:09;;;;;;;27.85;11.57;;;;;;;13.71;75.24;93466.75;5065421;28;20047;-81
2023/10/20 06:46:35;;;;;;;27.80;11.73;;;;;;;13.85;75.26;93456.41;5065449;28;20101;-79
2023/10/20 06:49:00;;;;;;;33.92;11.85;;;;;;;14.01;74.64;93464.47;5065439;28;20096;-79
2023/10/20 06:51:26;;;;;;;27.83;11.52;;;;;;;14.18;74.31;93470.63;5065253;28;20016;-79
2023/10/20 06:53:51;;;;;;;30.20;10.48;;;;;;;14.34;73.39;93468.75;5065519;28;20121;-79
2023/10/20 06:56:17;;;;;;;23.30;9.80;;;;;;;14.50;73.25;93467.97;5065230;28;20377;-79
2023/10/20 06:58:43;;;;;;;17.77;9.02;;;;;;;14.66;72.55;93481.41;5065376;28;20025;-80
2023/10/20 07:01:08;;;;;;;15.85;7.38;;;;;;;14.81;71.57;93477.91;5063958;28;20028;-78
2023/10/20 07:03:34;;;;;;;13.05;7.35;;;;;;;14.93;71.16;93464.41;5065183;28;20037;-79
2023/10/20 07:06:00;;;;;;;16.40;5.72;;;;;;;15.08;69.55;93476.22;5064931;28;20025;-79
2023/10/20 07:08:26;;;;;;;19.83;6.25;;;;;;;15.18;69.55;93469.53;5065216;28;20214;-78
2023/10/20 07:10:52;;;;;;;9.23;5.75;;;;;;;15.23;68.36;93477.31;5065262;28;20040;-78
2023/10/20 07:13:17;;;;;;;15.57;6.07;;;;;;;15.31;67.30;93479.03;5064243;28;20071;-78
2023/10/20 07:15:43;;;;;;;16.25;4.95;;;;;;;15.38;67.47;93475.69;5064849;28;20082;-79
2023/10/20 07:18:11;;;;;;;12.45;5.43;;;;;;;15.41;67.64;93470.41;5064787;28;20335;-79
2023/10/20 07:20:38;;;;;;;17.52;7.45;;;;;;;15.50;66.98;93469.44;5064804;28;20028;-79
2023/10/20 07:23:06;;;;;;;13.70;7.13;;;;;;;15.55;66.67;93466.44;5064813;28;20196;-79
2023/10/20 07:25:32;;;;;;;13.20;6.03;;;;;;;15.59;66.25;93462.72;5064738;28;20226;-78
2023/10/20 07:27:58;;;;;;;14.02;7.00;;;;;;;15.63;65.96;93474.31;5064779;28;20028;-79
2023/10/20 07:30:23;;;;;;;11.70;6.72;;;;;;;15.68;65.68;93461.72;5064821;28;20025;-79
2023/10/20 07:32:51;;;;;;;24.55;6.63;;;;;;;15.68;65.76;93475.91;5064761;28;20341;-80
2023/10/20 07:35:17;;;;;;;11.85;5.28;;;;;;;15.71;65.04;93483.25;5064651;28;20052;-79
2023/10/20 07:37:43;;;;;;;16.10;6.15;;;;;;;15.77;65.37;93473.84;5064663;28;20025;-78
2023/10/20 07:40:10;;;;;;;15.55;6.25;;;;;;;15.84;65.20;93486.63;5064489;28;20025;-78
2023/10/20 07:42:36;;;;;;;13.77;5.35;;;;;;;15.89;64.43;93486.31;5064450;28;20039;-78
2023/10/20 07:45:01;;;;;;;18.10;5.78;;;;;;;16.00;64.41;93491.91;5064557;28;20158;-78
2023/10/20 07:47:27;;;;;;;18.42;6.55;;;;;;;16.11;64.39;93492.88;5064553;28;20021;-78
2023/10/20 07:49:53;;;;;;;15.45;6.47;;;;;;;16.17;64.07;93483.38;5064581;28;20033;-78
2023/10/20 07:52:19;;;;;;;19.13;5.65;;;;;;;16.24;63.84;93490.78;5064350;28;20029;-76
2023/10/20 07:54:45;;;;;;;18.52;5.20;;;;;;;16.28;64.12;93463.97;5064128;28;20073;-78
2023/10/20 07:57:10;;;;;;;12.07;6.28;;;;;;;16.35;63.69;93485.63;5064343;28;20051;-77
2023/10/20 07:59:36;;;;;;;15.70;6.88;;;;;;;16.43;63.72;93474.63;5064338;28;20036;-78
2023/10/20 08:02:05;;;;;;;15.68;6.65;;;;;;;16.51;62.68;93475.53;5064250;28;20025;-82
2023/10/20 08:04:31;;;;;;;15.02;5.95;;;;;;;16.55;62.47;93479.03;5064032;28;20186;-83
2023/10/20 08:06:59;;;;;;;7.93;5.32;;;;;;;16.63;62.29;93483.41;5063159;28;20028;-86
2023/10/20 08:09:27;;;;;;;19.52;5.85;;;;;;;16.73;61.67;93476.66;5063083;28;20032;-84
2023/10/20 08:11:53;;;;;;;13.10;6.00;;;;;;;16.75;61.03;93470.88;5064034;28;20035;-84
2023/10/20 08:14:20;;;;;;;16.52;5.70;;;;;;;16.77;60.56;93473.97;5064363;28;20025;-84
2023/10/20 08:16:46;;;;;;;14.35;6.38;;;;;;;16.80;60.68;93478.66;5063054;28;20032;-86
2023/10/20 08:19:11;;;;;;;14.48;5.55;;;;;;;16.84;60.98;93474.91;5064153;28;20057;-86
2023/10/20 08:21:36;;;;;;;23.45;6.68;;;;;;;16.91;60.97;93468.06;5063913;28;20032;-83
2023/10/20 08:24:04;;;;;;;14.15;5.63;;;;;;;16.96;60.48;93470.47;5062744;28;20036;-82
2023/10/20 08:26:31;;;;;;;15.95;5.70;;;;;;;17.00;60.03;93487.44;5061715;28;20025;-86
2023/10/20 08:28:57;;;;;;;12.13;5.80;;;;;;;17.03;60.40;93482.09;5063709;28;20039;-85
2023/10/20 08:31:22;;;;;;;11.52;5.70;;;;;;;17.11;59.78;93492.97;5063971;28;20025;-85
2023/10/20 08:33:48;;;;;;;14.90;5.88;;;;;;;17.14;58.97;93481.50;5063649;28;20374;-80
2023/10/20 08:36:15;;;;;;;11.70;4.88;;;;;;;17.14;58.89;93484.19;5062392;28;20051;-80
2023/10/20 08:38:45;;;;;;;17.67;4.15;;;;;;;17.09;59.34;93462.94;5063778;28;20020;-82
2023/10/20 08:41:13;;;;;;;11.48;5.15;;;;;;;17.03;59.37;93468.63;5063607;28;20062;-83
2023/10/20 08:43:43;;;;;;;11.32;4.80;;;;;;;16.97;60.14;93462.00;5063574;28;20021;-82
2023/10/20 08:46:13;;;;;;;18.27;4.93;;;;;;;16.95;60.72;93464.28;5063529;28;20028;-81
2023/10/20 08:48:40;;;;;;;22.52;5.90;;;;;;;16.97;60.38;93462.00;5062384;28;20044;-81
2023/10/20 08:51:07;;;;;;;13.48;4.88;;;;;;;16.98;60.19;93452.81;5063624;28;20031;-85
2023/10/20 08:53:34;;;;;;;22.08;6.22;;;;;;;17.01;60.22;93457.44;5063389;28;20024;-85
2023/10/20 08:56:01;;;;;;;14.13;5.82;;;;;;;16.98;60.00;93458.19;5063269;28;20096;-83
2023/10/20 08:58:29;;;;;;;19.10;6.10;;;;;;;17.00;60.09;93471.31;5062272;28;20029;-86
2023/10/20 09:00:56;;;;;;;18.25;5.63;;;;;;;17.03;59.82;93481.31;5063535;28;20017;-86
2023/10/20 09:03:21;;;;;;;19.65;6.68;;;;;;;17.07;59.08;93470.63;5063477;28;20084;-86
2023/10/20 09:05:47;;;;;;;15.55;6.07;;;;;;;17.11;59.19;93460.69;5061883;28;20041;-86
2023/10/20 09:08:12;;;;;;;11.55;5.38;;;;;;;17.11;59.33;93455.28;5063336;28;20041;-87
2023/10/20 09:10:47;;;;;;;22.52;6.13;;;;;;;17.19;59.47;93473.88;5063243;28;20013;-86
2023/10/20 09:13:12;;;;;;;12.15;6.45;;;;;;;17.24;59.51;93465.47;5063392;28;20230;-87
2023/10/20 09:15:38;;;;;;;16.70;6.10;;;;;;;17.32;59.68;93455.59;5063257;28;20081;-86
2023/10/20 09:18:08;;;;;;;13.35;6.13;;;;;;;17.40;59.63;93461.81;5062424;28;20048;-87
2023/10/20 09:20:34;;;;;;;15.05;5.82;;;;;;;17.48;58.90;93452.69;5062144;28;20024;-86
2023/10/20 09:23:00;;;;;;;13.30;4.75;;;;;;;17.59;58.55;93452.84;5062084;28;20024;-87
2023/10/20 09:25:26;;;;;;;14.18;5.50;;;;;;;17.69;58.21;93441.41;5062183;28;20028;-87
2023/10/20 09:27:52;;;;;;;23.60;7.22;;;;;;;17.79;57.94;93438.06;5063297;28;20036;-86
2023/10/20 09:30:18;;;;;;;14.38;5.85;;;;;;;17.90;58.22;93434.72;5062406;28;20025;-87
2023/10/20 09:32:44;;;;;;;13.90;5.70;;;;;;;18.10;57.26;93413.75;5063309;28;20032;-86
2023/10/20 09:35:10;;;;;;;22.88;5.32;;;;;;;18.33;56.87;93413.53;5063213;28;20033;-87
2023/10/20 09:37:36;;;;;;;11.90;4.93;;;;;;;18.56;55.91;93403.34;5062959;28;20261;-87
2023/10/20 09:40:05;;;;;;;11.70;5.05;;;;;;;18.79;55.49;93418.56;5063077;28;20098;-86
2023/10/20 09:42:47;;;;;;;16.52;5.00;;;;;;;19.05;54.17;93404.06;5062911;28;20048;-83
2023/10/20 09:45:21;;;;;;;15.63;5.37;;;;;;;19.26;54.03;93408.81;5063428;28;20025;-87
2023/10/20 09:47:52;;;;;;;14.95;5.47;;;;;;;19.44;53.58;93403.47;5061965;28;20040;-88
2023/10/20 09:50:19;;;;;;;12.70;5.47;;;;;;;19.62;53.38;93398.13;5061378;28;20028;-84
2023/10/20 09:52:46;;;;;;;12.75;5.43;;;;;;;19.79;52.08;93408.25;5061064;28;20096;-85
2023/10/20 09:55:13;;;;;;;26.33;5.80;;;;;;;19.97;51.42;93394.00;5061646;28;20039;-84
2023/10/20 09:57:39;;;;;;;13.32;5.20;;;;;;;20.07;51.24;93403.28;5061391;28;20036;-84
2023/10/20 10:00:08;;;;;;;21.55;5.05;;;;;;;20.17;51.62;93405.22;5060989;28;20199;-85
2023/10/20 10:02:34;;;;;;;20.02;5.55;;;;;;;20.29;51.52;93410.25;5060944;28;20033;-85
2023/10/20 10:05:00;;;;;;;16.38;5.35;;;;;;;20.43;49.80;93402.19;5060584;28;20325;-85
2023/10/20 10:07:33;;;;;;;20.70;5.40;;;;;;;20.54;49.16;93396.75;5059309;28;20025;-85
2023/10/20 10:09:59;;;;;;;13.68;5.45;;;;;;;20.58;49.66;93386.72;5059383;28;20315;-85
2023/10/20 10:12:27;;;;;;;15.63;5.40;;;;;;;20.68;50.09;93378.97;5059918;28;20068;-85
2023/10/20 10:14:58;;;;;;;17.58;4.72;;;;;;;20.75;49.57;93382.44;5060076;28;20033;-85
2023/10/20 10:17:26;;;;;;;11.23;4.20;;;;;;;20.77;48.98;93387.50;5061077;28;20020;-85
2023/10/20 10:19:52;;;;;;;15.68;4.90;;;;;;;20.71;48.91;93370.09;5059694;28;20311;-85
2023/10/20 10:22:26;;;;;;;9.82;4.82;;;;;;;20.63;48.85;93372.78;5062528;28;20020;-85
2023/10/20 10:24:54;;;;;;;13.38;4.28;;;;;;;20.59;49.17;93382.84;5061302;28;20032;-85
2023/10/20 10:27:22;;;;;;;14.95;4.53;;;;;;;20.57;49.65;93363.47;5061402;28;20053;-85
2023/10/20 10:29:56;;;;;;;23.95;5.40;;;;;;;20.57;49.16;93358.06;5062432;28;20035;-85
2023/10/20 10:32:22;;;;;;;20.52;4.88;;;;;;;20.55;50.06;93371.22;5062294;28;20033;-85
2023/10/20 10:34:52;;;;;;;11.80;4.18;;;;;;;20.50;49.82;93357.31;5062299;28;20036;-85
2023/10/20 10:37:37;;;;;;;19.52;4.60;;;;;;;20.44;49.47;93371.22;5062406;28;20330;-85
2023/10/20 10:40:07;;;;;;;15.02;5.60;;;;;;;20.44;49.45;93357.69;5060639;28;20239;-85
2023/10/20 10:42:44;;;;;;;11.60;3.90;;;;;;;20.48;50.34;93355.00;5061955;28;20323;-85
2023/10/20 10:45:33;;;;;;;14.80;3.88;;;;;;;20.56;50.15;93361.94;5061018;28;20044;-85
2023/10/20 10:48:18;;;;;;;17.98;4.72;;;;;;;20.68;50.36;93351.91;5060975;28;20045;-85
2023/10/20 10:50:45;;;;;;;18.70;3.92;;;;;;;20.76;49.36;93362.34;5065713;28;20097;-85
2023/10/20 10:53:12;;;;;;;10.82;3.90;;;;;;;20.89;48.87;93351.09;5064673;28;20318;-85
2023/10/20 10:55:38;;;;;;;7.30;3.88;;;;;;;20.98;48.54;93362.28;5064849;28;20028;-85
2023/10/20 10:58:15;;;;;;;10.60;4.03;;;;;;;21.06;48.68;93344.09;5065780;28;20052;-86
2023/10/20 11:00:43;;;;;;;14.57;3.75;;;;;;;21.19;47.37;93353.34;5065752;28;20096;-85
2023/10/20 11:03:09;;;;;;;16.50;4.13;;;;;;;21.30;47.94;93345.16;5065580;28;20338;-85
2023/10/20 11:05:35;;;;;;;14.93;3.65;;;;;;;21.48;47.91;93347.84;5065524;28;20017;-85
2023/10/20 11:08:07;;;;;;;14.18;3.63;;;;;;;21.62;46.96;93342.34;5065491;28;20048;-85
2023/10/20 11:10:37;;;;;;;9.35;3.70;;;;;;;21.76;46.90;93336.84;5065565;28;20096;-85
2023/10/20 11:13:08;;;;;;;16.40;3.90;;;;;;;21.92;45.76;93343.69;5064218;28;20021;-85
2023/10/20 11:15:35;;;;;;;12.38;3.22;;;;;;;22.00;45.07;93329.72;5065473;28;20027;-85
2023/10/20 11:18:02;;;;;;;10.65;3.60;;;;;;;22.14;45.25;93338.91;5065384;28;20357;-86
2023/10/20 11:20:36;;;;;;;14.23;3.33;;;;;;;22.32;43.87;93339.56;5064404;28;20057;-85
2023/10/20 11:23:03;;;;;;;14.20;3.90;;;;;;;22.47;43.61;93320.44;5065364;28;20029;-85
2023/10/20 11:25:29;;;;;;;21.35;3.55;;;;;;;22.61;44.22;93331.97;5065474;28;20025;-86
2023/10/20 11:27:54;;;;;;;13.52;3.45;;;;;;;22.77;42.26;93331.41;5064862;28;20043;-85
2023/10/20 11:30:26;;;;;;;11.48;3.60;;;;;;;22.95;42.03;93317.63;5065727;28;20029;-86
2023/10/20 11:32:53;;;;;;;14.32;3.25;;;;;;;23.10;41.38;93325.66;5065267;28;20214;-87
2023/10/20 11:35:21;;;;;;;17.42;2.65;;;;;;;23.27;40.83;93326.66;5064569;28;20303;-88
2023/10/20 11:37:51;;;;;;;18.08;4.25;;;;;;;23.38;40.00;93319.88;5064205;28;20021;-87
2023/10/20 11:40:16;;;;;;;8.63;3.50;;;;;;;23.52;39.27;93320.91;5064604;28;20020;-87
2023/10/20 11:42:42;;;;;;;19.00;4.70;;;;;;;23.68;39.68;93326.50;5064100;28;20199;-86
2023/10/20 11:45:10;;;;;;;14.75;4.15;;;;;;;23.83;39.39;93318.94;5064794;28;20086;-86
2023/10/20 11:47:36;;;;;;;15.25;4.10;;;;;;;23.92;38.11;93310.28;5064894;28;20064;-86
2023/10/20 11:50:02;;;;;;;18.95;3.90;;;;;;;24.05;38.86;93311.25;5064794;28;20323;-87
2023/10/20 11:52:28;;;;;;;20.80;3.42;;;;;;;24.23;38.54;93303.56;5063763;28;20029;-88
2023/10/20 11:54:53;;;;;;;22.88;4.47;;;;;;;24.41;38.06;93300.56;5065002;28;20083;-87
2023/10/20 11:57:19;;;;;;;22.05;3.40;;;;;;;24.60;37.34;93301.81;5065363;28;20031;-88
2023/10/20 11:59:44;;;;;;;16.55;4.05;;;;;;;24.81;37.99;93300.69;5065158;28;20020;-86
2023/10/20 12:02:10;;;;;;;30.15;4.45;;;;;;;24.96;36.48;93289.50;5064882;28;20024;-89
2023/10/20 12:04:36;;;;;;;15.98;4.18;;;;;;;25.17;36.15;93301.94;5063607;28;20032;-85